Time;durP1;ratioP1;P1;durP2;ratioP2;P2;SDS_P1;SDS_P2;PMS_P1;PMS_P2;Temp;Humidity;BMP_temperature;BMP_pressure;BME280_temperature;BME280_humidity;BME280_pressure;Samples;Min_cycle;Max_cycle;Signal;HPM_P1;HPM_P2
2022/10/18 00:01:48;;;;;;;71.55;37.28;;;13.30;99.90;;;;;;4965744;28;20078;-64
2022/10/18 00:04:14;;;;;;;76.88;40.35;;;13.40;99.90;;;;;;4965880;28;20377;-64
2022/10/18 00:06:40;;;;;;;72.90;38.67;;;13.30;99.90;;;;;;4947039;28;20086;-63
2022/10/18 00:09:05;;;;;;;74.28;40.75;;;13.20;99.90;;;;;;4965568;28;20267;-65
2022/10/18 00:11:31;;;;;;;78.88;38.88;;;13.20;99.90;;;;;;4965675;28;20034;-63
2022/10/18 00:13:57;;;;;;;65.72;35.50;;;13.10;99.90;;;;;;4965761;28;20489;-64
2022/10/18 00:16:23;;;;;;;67.70;36.08;;;13.10;99.90;;;;;;4965730;28;20050;-64
2022/10/18 00:18:49;;;;;;;74.15;37.10;;;13.20;99.90;;;;;;4948566;28;20078;-64
2022/10/18 00:21:17;;;;;;;64.80;35.30;;;13.10;99.90;;;;;;4964076;28;20050;-63
2022/10/18 00:23:44;;;;;;;70.40;34.67;;;13.10;99.90;;;;;;4965907;28;20058;-64
2022/10/18 00:26:16;;;;;;;67.05;32.28;;;13.00;99.90;;;;;;4965523;28;20058;-63
2022/10/18 00:28:43;;;;;;;63.53;33.03;;;13.00;99.90;;;;;;4964969;28;20121;-64
2022/10/18 00:31:30;;;;;;;64.25;33.58;;;13.00;99.90;;;;;;4964605;28;20082;-64
2022/10/18 00:33:59;;;;;;;65.57;34.25;;;13.00;99.90;;;;;;4965182;28;20051;-64
2022/10/18 00:36:26;;;;;;;62.00;34.55;;;12.80;99.90;;;;;;4964327;28;20414;-64
2022/10/18 00:38:52;;;;;;;71.10;34.70;;;13.00;99.90;;;;;;4965649;28;20061;-64
2022/10/18 00:41:23;;;;;;;67.18;35.13;;;12.80;99.90;;;;;;4965934;28;20047;-64
2022/10/18 00:44:00;;;;;;;63.58;34.15;;;13.00;99.90;;;;;;4966228;28;20093;-64
2022/10/18 00:46:32;;;;;;;62.20;33.50;;;12.90;99.90;;;;;;4947889;28;20086;-63
2022/10/18 00:49:00;;;;;;;75.88;37.17;;;13.00;99.90;;;;;;4965030;28;20050;-64
2022/10/18 00:51:40;;;;;;;66.75;33.45;;;12.80;99.90;;;;;;4946889;28;20078;-63
2022/10/18 00:54:06;;;;;;;63.53;31.27;;;12.90;99.90;;;;;;4964783;28;20054;-64
2022/10/18 00:56:33;;;;;;;63.90;32.90;;;12.90;99.90;;;;;;4964674;28;20042;-65
2022/10/18 00:58:58;;;;;;;66.35;32.00;;;12.80;99.90;;;;;;4947758;28;20093;-64
2022/10/18 01:01:24;;;;;;;61.90;31.13;;;12.70;99.90;;;;;;4964940;28;20046;-63
2022/10/18 01:03:51;;;;;;;66.85;32.83;;;12.80;99.90;;;;;;4964139;28;20545;-64
2022/10/18 01:06:16;;;;;;;65.32;31.73;;;12.70;99.90;;;;;;4963220;28;20093;-64
2022/10/18 01:09:36;;;;;;;57.90;31.73;;;12.70;99.90;;;;;;4964708;28;20046;-64
2022/10/18 01:12:31;;;;;;;55.97;29.80;;;12.80;99.90;;;;;;4870426;29;20385;-65
2022/10/18 01:15:15;;;;;;;54.83;30.33;;;12.70;99.90;;;;;;4947697;28;20394;-63
2022/10/18 01:18:09;;;;;;;57.00;30.20;;;12.70;99.90;;;;;;4963590;28;20462;-64
2022/10/18 01:20:54;;;;;;;60.75;30.23;;;12.70;99.90;;;;;;4944195;28;20450;-64
2022/10/18 01:23:57;;;;;;;62.55;31.08;;;12.70;99.90;;;;;;4963570;28;20050;-64
2022/10/18 01:26:32;;;;;;;58.95;31.27;;;12.60;99.90;;;;;;4963646;28;20261;-63
2022/10/18 01:29:31;;;;;;;65.15;32.45;;;12.70;99.90;;;;;;4964692;28;20047;-63
2022/10/18 01:32:11;;;;;;;58.45;29.10;;;12.70;99.90;;;;;;4946822;28;20109;-63
2022/10/18 01:34:40;;;;;;;53.50;29.63;;;12.60;99.90;;;;;;4963275;28;20072;-63
2022/10/18 01:37:10;;;;;;;57.30;29.15;;;12.60;99.90;;;;;;4963184;28;20054;-64
2022/10/18 01:39:39;;;;;;;54.63;28.15;;;12.60;99.90;;;;;;4964137;28;20130;-63
2022/10/18 01:42:09;;;;;;;65.28;31.63;;;12.60;99.90;;;;;;4963996;28;20058;-63
2022/10/18 01:44:37;;;;;;;63.35;30.88;;;12.50;99.90;;;;;;4963505;28;20074;-64
2022/10/18 01:47:08;;;;;;;64.72;31.27;;;12.50;99.90;;;;;;4963844;28;20049;-64
2022/10/18 01:49:33;;;;;;;67.63;33.60;;;12.60;99.90;;;;;;4963321;28;20438;-64
2022/10/18 01:51:59;;;;;;;64.35;31.90;;;12.60;99.90;;;;;;4963455;28;20038;-63
2022/10/18 01:54:37;;;;;;;62.78;31.30;;;12.40;99.90;;;;;;4963684;28;20046;-63
2022/10/18 01:57:40;;;;;;;68.68;33.28;;;12.40;99.90;;;;;;4963523;28;20087;-64
2022/10/18 02:00:12;;;;;;;67.30;31.35;;;12.40;99.90;;;;;;4960703;28;20073;-64
2022/10/18 02:03:10;;;;;;;55.90;30.27;;;12.40;99.90;;;;;;4963048;28;20053;-63
2022/10/18 02:05:41;;;;;;;56.78;29.65;;;12.30;99.90;;;;;;4962292;28;20050;-64
2022/10/18 02:08:17;;;;;;;51.85;29.33;;;12.40;99.90;;;;;;4962842;28;20053;-64
2022/10/18 02:10:45;;;;;;;56.28;28.85;;;12.30;99.90;;;;;;4963955;28;20117;-63
2022/10/18 02:13:15;;;;;;;65.38;31.38;;;12.30;99.90;;;;;;4962786;28;20078;-64
2022/10/18 02:15:45;;;;;;;59.45;30.92;;;12.30;99.90;;;;;;5020420;23;20059;-64
2022/10/18 02:18:17;;;;;;;63.72;31.15;;;12.30;99.90;;;;;;4956060;28;20062;-64
2022/10/18 02:20:44;;;;;;;63.63;32.67;;;12.30;99.90;;;;;;4973469;28;20043;-64
2022/10/18 02:23:12;;;;;;;58.95;31.80;;;12.30;99.90;;;;;;4982168;28;20080;-64
2022/10/18 02:25:38;;;;;;;64.28;32.03;;;12.20;99.90;;;;;;4983096;28;20049;-63
2022/10/18 02:28:04;;;;;;;60.67;31.88;;;12.30;99.90;;;;;;4982886;28;20762;-64
2022/10/18 02:30:51;;;;;;;64.32;32.13;;;12.20;99.90;;;;;;4982197;28;20085;-63
2022/10/18 02:33:40;;;;;;;63.20;31.98;;;12.30;99.90;;;;;;4982736;28;20052;-63
2022/10/18 02:36:21;;;;;;;64.18;31.52;;;12.30;99.90;;;;;;4982480;28;20050;-64
2022/10/18 02:38:50;;;;;;;71.40;31.83;;;12.20;99.90;;;;;;4982851;28;20042;-64
2022/10/18 02:41:25;;;;;;;66.60;31.65;;;12.10;99.90;;;;;;4982707;28;20105;-63
2022/10/18 02:43:51;;;;;;;67.53;32.45;;;12.20;99.90;;;;;;4969721;28;20058;-63
2022/10/18 02:46:17;;;;;;;60.65;32.58;;;12.20;99.90;;;;;;4985929;28;20046;-64
2022/10/18 02:48:43;;;;;;;62.20;30.52;;;12.20;99.90;;;;;;4986931;28;20085;-63
2022/10/18 02:51:08;;;;;;;81.07;34.33;;;12.20;99.90;;;;;;4986107;28;20038;-63
2022/10/18 02:53:34;;;;;;;78.00;33.15;;;12.20;99.90;;;;;;4986634;28;20441;-63
2022/10/18 02:56:00;;;;;;;110.47;34.80;;;12.20;99.90;;;;;;4986121;28;20759;-64
2022/10/18 02:58:25;;;;;;;81.05;32.80;;;12.20;99.90;;;;;;4985898;28;20042;-64
2022/10/18 03:00:51;;;;;;;91.28;32.03;;;12.10;99.90;;;;;;4986484;28;20046;-63
2022/10/18 03:03:17;;;;;;;96.68;34.65;;;12.10;99.90;;;;;;4985762;28;20137;-63
2022/10/18 03:05:42;;;;;;;127.80;35.65;;;12.20;99.90;;;;;;4966354;28;20085;-63
2022/10/18 03:08:08;;;;;;;201.38;37.28;;;12.20;99.90;;;;;;4951856;28;20051;-64
2022/10/18 03:10:33;;;;;;;105.03;33.65;;;12.10;99.90;;;;;;4962522;28;20044;-64
2022/10/18 03:12:59;;;;;;;103.68;30.60;;;12.20;99.90;;;;;;4945951;29;20107;-64
2022/10/18 03:15:25;;;;;;;306.80;36.83;;;12.20;99.90;;;;;;4947211;29;20118;-63
2022/10/18 03:17:50;;;;;;;250.77;37.65;;;12.10;99.90;;;;;;4930439;29;20059;-63
2022/10/18 03:20:16;;;;;;;146.73;34.47;;;12.20;99.90;;;;;;4945379;29;20079;-63
2022/10/18 03:22:42;;;;;;;167.35;33.28;;;12.00;99.90;;;;;;4946526;29;20074;-63
2022/10/18 03:25:07;;;;;;;151.75;33.38;;;12.00;99.90;;;;;;4947098;29;20077;-63
2022/10/18 03:27:33;;;;;;;115.43;31.73;;;12.00;99.90;;;;;;4947289;29;20087;-63
2022/10/18 03:29:59;;;;;;;101.20;32.63;;;12.10;99.90;;;;;;4947249;28;20035;-63
2022/10/18 03:32:25;;;;;;;128.20;32.65;;;12.00;99.90;;;;;;4946421;29;20537;-63
2022/10/18 03:34:51;;;;;;;141.80;32.60;;;12.00;99.90;;;;;;4946682;29;20624;-63
2022/10/18 03:37:16;;;;;;;109.07;32.08;;;12.20;99.90;;;;;;4962254;28;20055;-63
2022/10/18 03:39:42;;;;;;;127.57;32.33;;;12.00;99.90;;;;;;4946985;29;20819;-63
2022/10/18 03:42:08;;;;;;;103.72;29.05;;;12.00;99.90;;;;;;4946536;29;20106;-64
2022/10/18 03:44:33;;;;;;;132.27;29.55;;;12.00;99.90;;;;;;4946075;29;20052;-63
2022/10/18 03:46:59;;;;;;;214.88;33.28;;;12.00;99.90;;;;;;4947333;29;20043;-63
2022/10/18 03:49:24;;;;;;;280.15;39.05;;;12.10;99.90;;;;;;4944699;29;20043;-63
2022/10/18 03:51:50;;;;;;;242.75;33.05;;;12.00;99.90;;;;;;4946763;29;20040;-63
2022/10/18 03:54:16;;;;;;;153.32;31.88;;;12.10;99.90;;;;;;4945492;28;20043;-63
2022/10/18 03:56:41;;;;;;;174.07;33.80;;;12.10;99.90;;;;;;4946276;29;20047;-63
2022/10/18 03:59:07;;;;;;;350.98;39.20;;;12.00;99.90;;;;;;4946228;29;20103;-63
2022/10/18 04:01:33;;;;;;;108.60;30.60;;;12.00;99.90;;;;;;4947542;29;20039;-64
2022/10/18 04:03:58;;;;;;;109.80;32.00;;;12.00;99.90;;;;;;4946502;29;20486;-64
2022/10/18 04:06:24;;;;;;;280.52;37.35;;;12.00;99.90;;;;;;4956582;28;20126;-63
2022/10/18 04:08:50;;;;;;;96.25;32.60;;;12.10;99.90;;;;;;4946222;29;20093;-63
2022/10/18 04:11:15;;;;;;;129.85;33.63;;;12.10;99.90;;;;;;4928364;29;20047;-63
2022/10/18 04:13:41;;;;;;;97.38;32.30;;;12.10;99.90;;;;;;4945818;29;20143;-63
2022/10/18 04:16:07;;;;;;;122.43;29.92;;;12.10;99.90;;;;;;4945440;29;20048;-64
2022/10/18 04:18:32;;;;;;;154.82;34.20;;;12.00;99.90;;;;;;4945928;29;20039;-63
2022/10/18 04:20:58;;;;;;;168.35;35.17;;;12.10;99.90;;;;;;4946190;29;20047;-63
2022/10/18 04:23:24;;;;;;;118.60;33.65;;;12.10;99.90;;;;;;4945748;29;20764;-62
2022/10/18 04:25:49;;;;;;;158.60;36.33;;;12.10;99.90;;;;;;4944719;29;20071;-63
2022/10/18 04:28:15;;;;;;;94.13;30.60;;;12.00;99.90;;;;;;4945634;29;20128;-63
2022/10/18 04:30:41;;;;;;;98.30;32.15;;;12.00;99.90;;;;;;4945068;29;20458;-63
2022/10/18 04:33:06;;;;;;;173.82;33.90;;;12.00;99.90;;;;;;4945325;29;20090;-64
2022/10/18 04:35:32;;;;;;;191.18;36.03;;;12.00;99.90;;;;;;4944733;29;20115;-64
2022/10/18 04:37:58;;;;;;;305.67;39.35;;;12.00;99.90;;;;;;4928680;29;20062;-63
2022/10/18 04:40:23;;;;;;;238.82;37.72;;;11.90;99.90;;;;;;4945144;29;20050;-63
2022/10/18 04:42:49;;;;;;;231.52;37.25;;;12.00;99.90;;;;;;4944775;29;20047;-63
2022/10/18 04:45:15;;;;;;;121.30;33.25;;;12.00;99.90;;;;;;4945552;29;20533;-63
2022/10/18 04:47:40;;;;;;;112.70;32.05;;;11.90;99.90;;;;;;4928412;29;20537;-63
2022/10/18 04:50:06;;;;;;;146.10;31.65;;;12.00;99.90;;;;;;4943693;29;20051;-64
2022/10/18 04:52:32;;;;;;;149.48;33.00;;;11.90;99.90;;;;;;4945589;29;20050;-64
2022/10/18 04:54:57;;;;;;;78.78;28.17;;;11.90;99.90;;;;;;4946805;29;20047;-63
2022/10/18 04:57:23;;;;;;;98.85;28.55;;;11.90;99.90;;;;;;4944983;29;20692;-63
2022/10/18 04:59:49;;;;;;;118.20;30.08;;;11.90;99.90;;;;;;4944459;29;20817;-63
2022/10/18 05:02:14;;;;;;;122.00;32.00;;;11.90;99.90;;;;;;4945615;29;20075;-63
2022/10/18 05:04:40;;;;;;;81.57;29.88;;;11.80;99.90;;;;;;4945408;28;20090;-63
2022/10/18 05:07:05;;;;;;;73.90;28.70;;;11.90;99.90;;;;;;4954077;28;20094;-64
2022/10/18 05:09:32;;;;;;;114.68;29.95;;;11.80;99.90;;;;;;4944772;29;20042;-64
2022/10/18 05:11:57;;;;;;;158.45;31.08;;;11.80;99.90;;;;;;4945102;29;20035;-63
2022/10/18 05:14:23;;;;;;;259.05;34.72;;;11.80;99.90;;;;;;4944721;29;20106;-63
2022/10/18 05:16:49;;;;;;;215.48;33.38;;;11.80;99.90;;;;;;4945755;29;20055;-63
2022/10/18 05:19:14;;;;;;;160.75;29.75;;;11.90;99.90;;;;;;4943657;29;20568;-63
2022/10/18 05:21:40;;;;;;;169.88;30.25;;;11.80;99.90;;;;;;4944876;29;20549;-63
2022/10/18 05:24:06;;;;;;;151.07;28.13;;;11.70;99.90;;;;;;4945009;29;20107;-64
2022/10/18 05:26:31;;;;;;;131.35;29.08;;;11.80;99.90;;;;;;4945574;29;20589;-64
2022/10/18 05:28:57;;;;;;;173.00;32.20;;;11.80;99.90;;;;;;4945424;29;20047;-62
2022/10/18 05:31:22;;;;;;;441.70;36.78;;;11.80;99.90;;;;;;4944977;29;20094;-63
2022/10/18 05:33:48;;;;;;;178.95;31.75;;;11.60;99.90;;;;;;4942783;29;20465;-63
2022/10/18 05:36:14;;;;;;;229.35;33.90;;;11.70;99.90;;;;;;4942774;28;20538;-63
2022/10/18 05:38:44;;;;;;;356.42;33.80;;;11.60;99.90;;;;;;4945504;29;20047;-63
2022/10/18 05:41:11;;;;;;;413.45;34.15;;;11.60;99.90;;;;;;4944172;29;20117;-63
2022/10/18 05:43:38;;;;;;;398.98;35.25;;;11.60;99.90;;;;;;4927130;29;20066;-63
2022/10/18 05:46:04;;;;;;;541.33;42.97;;;11.50;99.90;;;;;;4945393;28;21052;-64
2022/10/18 05:48:30;;;;;;;509.73;37.63;;;11.50;99.90;;;;;;4963719;28;20130;-63
2022/10/18 05:51:00;;;;;;;440.95;37.40;;;11.40;99.90;;;;;;4946894;28;20421;-62
2022/10/18 05:53:26;;;;;;;412.52;34.65;;;11.50;99.90;;;;;;4962774;28;20101;-62
2022/10/18 05:55:51;;;;;;;464.98;39.63;;;11.60;99.90;;;;;;4946882;28;20090;-63
2022/10/18 05:58:17;;;;;;;321.08;33.55;;;11.60;99.90;;;;;;4963851;28;20509;-63
2022/10/18 06:00:43;;;;;;;538.33;35.33;;;11.50;99.90;;;;;;4946265;28;20073;-63
2022/10/18 06:03:09;;;;;;;383.00;33.17;;;11.50;99.90;;;;;;4963002;28;20741;-63
2022/10/18 06:05:34;;;;;;;451.17;34.22;;;11.50;99.90;;;;;;4939883;28;20091;-63
2022/10/18 06:08:00;;;;;;;591.20;36.67;;;11.40;99.90;;;;;;4951453;28;20035;-63
2022/10/18 06:10:26;;;;;;;451.98;34.85;;;11.40;99.90;;;;;;4943923;29;20557;-63
2022/10/18 06:12:51;;;;;;;427.23;34.05;;;11.30;99.90;;;;;;4927702;29;20391;-63
2022/10/18 06:15:17;;;;;;;357.92;31.90;;;11.40;99.90;;;;;;4943408;29;20063;-63
2022/10/18 06:17:43;;;;;;;186.00;27.45;;;11.40;99.90;;;;;;4943335;29;20572;-63
2022/10/18 06:20:09;;;;;;;191.75;24.60;;;11.40;99.90;;;;;;4941786;29;20043;-63
2022/10/18 06:22:35;;;;;;;274.00;27.75;;;11.40;99.90;;;;;;4943961;29;20035;-63
2022/10/18 06:25:00;;;;;;;102.10;21.45;;;11.30;99.90;;;;;;4943334;29;20091;-63
2022/10/18 06:27:26;;;;;;;322.15;29.60;;;11.30;99.90;;;;;;4942423;29;20039;-63
2022/10/18 06:29:52;;;;;;;240.25;24.27;;;11.20;99.90;;;;;;4943696;29;20140;-62
2022/10/18 06:32:18;;;;;;;165.82;23.33;;;11.20;99.90;;;;;;4944025;28;20093;-63
2022/10/18 06:34:44;;;;;;;167.30;22.38;;;11.20;99.90;;;;;;4961737;28;20108;-63
2022/10/18 06:37:10;;;;;;;105.72;19.38;;;11.20;99.90;;;;;;4961523;28;20576;-63
2022/10/18 06:39:35;;;;;;;165.93;25.42;;;11.20;99.90;;;;;;4962655;28;20086;-63
2022/10/18 06:42:01;;;;;;;115.18;24.58;;;11.30;99.90;;;;;;4962808;28;20043;-64
2022/10/18 06:44:27;;;;;;;360.55;30.67;;;11.30;99.90;;;;;;4963156;28;20051;-63
2022/10/18 06:46:52;;;;;;;332.67;28.05;;;11.30;99.90;;;;;;4962690;28;20043;-63
2022/10/18 06:49:18;;;;;;;192.07;24.38;;;11.20;99.90;;;;;;4961998;28;20057;-62
2022/10/18 06:51:45;;;;;;;119.70;21.75;;;11.10;99.90;;;;;;4962892;28;20043;-63
2022/10/18 06:54:11;;;;;;;123.50;21.90;;;11.20;99.90;;;;;;4962147;28;20802;-63
2022/10/18 06:56:37;;;;;;;109.53;21.40;;;11.30;99.90;;;;;;4962771;28;20038;-63
2022/10/18 06:59:03;;;;;;;247.57;24.58;;;11.20;99.90;;;;;;4962849;28;20045;-63
2022/10/18 07:01:29;;;;;;;236.88;25.45;;;11.20;99.90;;;;;;4963786;28;20055;-63
2022/10/18 07:03:55;;;;;;;247.80;25.48;;;11.10;99.90;;;;;;4962196;28;20094;-63
2022/10/18 07:06:22;;;;;;;128.05;20.35;;;11.20;99.90;;;;;;4957529;28;20050;-63
2022/10/18 07:08:51;;;;;;;81.95;20.63;;;11.10;99.90;;;;;;4944373;28;20066;-62
2022/10/18 07:11:23;;;;;;;137.25;22.40;;;11.00;99.90;;;;;;4943412;29;20051;-63
2022/10/18 07:13:49;;;;;;;228.43;24.30;;;11.20;99.90;;;;;;4944784;29;20066;-63
2022/10/18 07:16:17;;;;;;;296.13;26.65;;;11.10;99.90;;;;;;4943884;29;20070;-63
2022/10/18 07:18:45;;;;;;;122.93;20.38;;;11.10;99.90;;;;;;4942180;29;20051;-64
2022/10/18 07:21:13;;;;;;;233.77;24.15;;;11.00;99.90;;;;;;4943761;29;20118;-63
2022/10/18 07:23:41;;;;;;;100.55;20.85;;;11.20;99.90;;;;;;4943459;29;20074;-63
2022/10/18 07:26:31;;;;;;;122.38;21.70;;;11.10;99.90;;;;;;4943481;29;20059;-64
2022/10/18 07:29:05;;;;;;;200.85;22.92;;;11.10;99.90;;;;;;4922246;29;20051;-64
2022/10/18 07:31:32;;;;;;;154.70;20.25;;;11.20;99.90;;;;;;4946928;29;20427;-64
2022/10/18 07:33:57;;;;;;;142.05;20.55;;;11.20;99.90;;;;;;4946285;29;20051;-63
2022/10/18 07:36:24;;;;;;;183.43;22.67;;;11.30;99.90;;;;;;4946450;29;20043;-64
2022/10/18 07:38:53;;;;;;;204.57;22.52;;;11.30;99.90;;;;;;4946998;29;20070;-63
2022/10/18 07:41:19;;;;;;;50.97;16.42;;;11.30;99.90;;;;;;4945536;29;20075;-64
2022/10/18 07:43:47;;;;;;;52.15;17.10;;;11.20;99.90;;;;;;4946644;29;20147;-64
2022/10/18 07:46:14;;;;;;;68.30;17.85;;;11.20;99.90;;;;;;4946923;29;20039;-63
2022/10/18 07:48:40;;;;;;;85.00;18.00;;;11.20;99.90;;;;;;4945142;28;20800;-63
2022/10/18 07:51:06;;;;;;;44.53;14.73;;;11.20;99.90;;;;;;4946465;29;20048;-63
2022/10/18 07:53:33;;;;;;;75.22;17.50;;;11.20;99.90;;;;;;4946489;29;20039;-64
2022/10/18 07:56:04;;;;;;;91.30;18.02;;;11.20;99.90;;;;;;4947110;29;20051;-63
2022/10/18 07:58:31;;;;;;;161.52;20.00;;;11.30;99.90;;;;;;4945216;28;20122;-63
2022/10/18 08:01:00;;;;;;;200.60;21.55;;;11.30;99.90;;;;;;4947408;29;20043;-63
2022/10/18 08:03:26;;;;;;;70.32;16.83;;;11.40;99.90;;;;;;4946121;29;20050;-63
2022/10/18 08:05:53;;;;;;;72.57;17.88;;;11.40;99.90;;;;;;4947568;28;20588;-63
2022/10/18 08:08:21;;;;;;;87.88;18.67;;;11.30;99.90;;;;;;4963132;28;20606;-64
2022/10/18 08:10:47;;;;;;;59.40;18.13;;;11.40;99.90;;;;;;4963175;28;20107;-63
2022/10/18 08:13:12;;;;;;;50.35;17.95;;;11.50;99.90;;;;;;4948085;28;20054;-64
2022/10/18 08:15:38;;;;;;;45.95;17.90;;;11.30;99.90;;;;;;4964225;28;20062;-63
2022/10/18 08:18:04;;;;;;;40.40;18.77;;;11.60;99.90;;;;;;4947265;28;20066;-64
2022/10/18 08:20:30;;;;;;;39.85;17.23;;;11.40;99.90;;;;;;4947435;28;20176;-63
2022/10/18 08:22:56;;;;;;;25.48;15.18;;;11.60;99.90;;;;;;4963863;28;20043;-64
2022/10/18 08:25:22;;;;;;;30.83;16.17;;;11.60;99.90;;;;;;4946589;28;20533;-63
2022/10/18 08:27:47;;;;;;;33.38;17.15;;;11.70;99.90;;;;;;4965035;28;20101;-63
2022/10/18 08:30:13;;;;;;;30.20;17.40;;;11.80;99.90;;;;;;4964558;28;20421;-64
2022/10/18 08:32:39;;;;;;;27.88;15.18;;;12.10;99.90;;;;;;4964506;28;20043;-64
2022/10/18 08:35:05;;;;;;;24.65;14.98;;;12.00;99.90;;;;;;4947052;28;20062;-64
2022/10/18 08:37:32;;;;;;;25.67;14.40;;;12.30;99.90;;;;;;4965242;28;20070;-63
2022/10/18 08:39:57;;;;;;;20.90;13.52;;;12.50;99.90;;;;;;4964900;28;20046;-64
2022/10/18 08:42:32;;;;;;;24.42;13.70;;;12.50;99.90;;;;;;4964072;28;20061;-63
2022/10/18 08:44:59;;;;;;;22.75;12.52;;;12.30;99.90;;;;;;4965107;28;20563;-63
2022/10/18 08:47:35;;;;;;;21.13;13.15;;;12.40;99.90;;;;;;4964831;28;20442;-63
2022/10/18 08:50:06;;;;;;;20.55;13.63;;;12.60;99.90;;;;;;4963462;28;20082;-63
2022/10/18 08:52:47;;;;;;;20.45;12.27;;;13.00;99.90;;;;;;4964671;28;20043;-65
2022/10/18 08:55:36;;;;;;;19.45;11.73;;;13.10;99.90;;;;;;4963826;28;20050;-63
2022/10/18 08:58:18;;;;;;;19.95;10.98;;;13.10;99.90;;;;;;4964374;28;20043;-64
2022/10/18 09:01:15;;;;;;;20.50;11.30;;;13.10;99.90;;;;;;4965527;28;20086;-67
2022/10/18 09:04:05;;;;;;;24.42;10.93;;;13.20;99.90;;;;;;4932777;28;20828;-64
2022/10/18 09:06:52;;;;;;;15.90;9.30;;;14.00;99.90;;;;;;4958108;28;20047;-63
2022/10/18 09:09:26;;;;;;;16.63;9.57;;;14.70;99.90;;;;;;4944156;29;20398;-63
2022/10/18 09:12:20;;;;;;;16.27;9.05;;;15.50;99.90;;;;;;4944137;29;20047;-63
2022/10/18 09:15:21;;;;;;;12.88;8.60;;;16.10;99.90;;;;;;4928170;29;20055;-63
2022/10/18 09:18:00;;;;;;;12.07;8.38;;;16.30;99.90;;;;;;4884259;29;20473;-65
2022/10/18 09:21:02;;;;;;;10.90;7.40;;;16.80;99.90;;;;;;4921041;29;20064;-65
2022/10/18 09:23:39;;;;;;;11.50;6.75;;;16.80;99.90;;;;;;4926510;29;20047;-65
2022/10/18 09:26:09;;;;;;;10.25;6.90;;;15.80;99.90;;;;;;4909259;29;20125;-66
2022/10/18 09:28:46;;;;;;;14.93;7.68;;;16.30;99.90;;;;;;4926971;29;20130;-66
2022/10/18 09:31:20;;;;;;;12.93;6.32;;;16.50;99.90;;;;;;4925369;29;20050;-65
2022/10/18 09:33:55;;;;;;;13.32;6.90;;;16.80;99.90;;;;;;4925947;29;20055;-65
2022/10/18 09:36:29;;;;;;;12.63;5.43;;;17.00;99.90;;;;;;4926251;29;20051;-66
2022/10/18 09:38:58;;;;;;;;;;;17.40;99.90;;;;;;4926528;29;20055;-66
2022/10/18 09:41:39;;;;;;;14.52;5.10;;;16.30;99.90;;;;;;4925940;29;19923;-65
2022/10/18 09:44:08;;;;;;;14.45;4.97;;;16.70;99.90;;;;;;4925966;29;20044;-66
2022/10/18 09:46:39;;;;;;;14.02;4.25;;;17.50;99.90;;;;;;4925765;29;20382;-67
2022/10/18 09:49:12;;;;;;;12.70;4.07;;;17.70;99.90;;;;;;4925041;29;20079;-66
2022/10/18 09:51:41;;;;;;;12.90;3.95;;;17.60;99.90;;;;;;4924918;29;20052;-66
2022/10/18 09:54:35;;;;;;;13.38;3.70;;;18.30;99.90;;;;;;4908925;29;20108;-66
2022/10/18 09:57:15;;;;;;;10.48;3.25;;;18.00;99.90;;;;;;4923178;29;20056;-66
2022/10/18 09:59:42;;;;;;;15.85;2.85;;;17.90;99.90;;;;;;4925807;29;20110;-66
2022/10/18 10:02:25;;;;;;;12.32;3.03;;;18.10;99.90;;;;;;4925841;29;20050;-66
2022/10/18 10:04:55;;;;;;;11.13;2.33;;;18.20;99.90;;;;;;4941872;28;20051;-66
2022/10/18 10:07:27;;;;;;;8.45;2.70;;;18.10;99.90;;;;;;4934151;29;20119;-66
2022/10/18 10:10:07;;;;;;;12.43;2.92;;;18.80;99.90;;;;;;4924909;29;20070;-67
2022/10/18 10:12:38;;;;;;;9.32;2.20;;;19.30;99.90;;;;;;4925657;29;20431;-66
2022/10/18 10:15:25;;;;;;;11.45;2.58;;;19.50;99.90;;;;;;4925427;29;20087;-66
2022/10/18 10:18:20;;;;;;;9.73;2.47;;;19.50;99.90;;;;;;4924822;29;20881;-66
2022/10/18 10:20:53;;;;;;;10.50;2.63;;;19.10;99.90;;;;;;4908603;29;20056;-66
2022/10/18 10:23:32;;;;;;;9.93;2.00;;;19.00;99.90;;;;;;4925028;29;20799;-66
2022/10/18 10:26:05;;;;;;;11.02;2.17;;;18.70;99.90;;;;;;4925724;29;20431;-66
2022/10/18 10:28:35;;;;;;;13.23;2.80;;;19.10;99.90;;;;;;4925694;29;20592;-66
2022/10/18 10:31:28;;;;;;;11.02;2.53;;;19.10;99.90;;;;;;4926134;29;20103;-66
2022/10/18 10:34:00;;;;;;;11.23;2.33;;;18.40;99.90;;;;;;4924827;29;20048;-67
2022/10/18 10:36:26;;;;;;;8.85;1.90;;;18.00;99.90;;;;;;4907564;29;20578;-68
2022/10/18 10:39:17;;;;;;;11.80;1.98;;;18.50;99.90;;;;;;4925344;29;20138;-67
2022/10/18 10:41:47;;;;;;;14.07;2.55;;;18.50;99.90;;;;;;4940300;29;20056;-67
2022/10/18 10:44:19;;;;;;;13.00;2.08;;;18.80;99.90;;;;;;4925064;29;20078;-67
2022/10/18 10:46:47;;;;;;;11.82;2.20;;;19.20;99.90;;;;;;4908389;29;20048;-67
2022/10/18 10:49:19;;;;;;;6.05;1.75;;;19.00;99.90;;;;;;4923632;29;20058;-67
2022/10/18 10:51:54;;;;;;;8.27;1.70;;;18.50;99.90;;;;;;4925166;29;20055;-67
2022/10/18 10:54:25;;;;;;;12.05;2.30;;;18.30;99.90;;;;;;4924902;29;20051;-67
2022/10/18 10:57:11;;;;;;;9.70;2.00;;;18.10;99.90;;;;;;4923106;29;20047;-67
2022/10/18 10:59:45;;;;;;;11.07;2.30;;;18.80;99.90;;;;;;4923850;29;20039;-67
2022/10/18 11:02:20;;;;;;;9.50;2.00;;;18.70;99.90;;;;;;4924294;29;20047;-67
2022/10/18 11:04:52;;;;;;;10.55;2.25;;;18.40;99.90;;;;;;4930099;29;20315;-67
2022/10/18 11:07:41;;;;;;;10.55;1.85;;;18.40;99.90;;;;;;4919582;29;20059;-67
2022/10/18 11:10:15;;;;;;;7.40;1.75;;;19.00;99.90;;;;;;4928834;29;20070;-67
2022/10/18 11:12:45;;;;;;;7.90;1.77;;;19.10;99.90;;;;;;4927996;29;20608;-67
2022/10/18 11:15:10;;;;;;;9.50;1.67;;;19.60;99.90;;;;;;4928121;29;20056;-67
2022/10/18 11:17:46;;;;;;;8.20;2.08;;;19.40;99.90;;;;;;4927861;29;20380;-68
2022/10/18 11:20:26;;;;;;;11.40;1.88;;;19.00;99.90;;;;;;4926121;29;20167;-67
2022/10/18 11:23:07;;;;;;;9.35;1.67;;;19.10;99.90;;;;;;4928251;29;20055;-67
2022/10/18 11:25:59;;;;;;;9.07;1.65;;;19.00;99.90;;;;;;4910761;29;20071;-68
2022/10/18 11:28:56;;;;;;;12.68;2.90;;;18.90;99.90;;;;;;4927815;29;20055;-67
2022/10/18 11:31:43;;;;;;;8.15;1.70;;;18.60;99.90;;;;;;4927104;29;20248;-67
2022/10/18 11:34:30;;;;;;;8.45;1.75;;;18.60;99.90;;;;;;4909875;29;20047;-68
2022/10/18 11:37:14;;;;;;;7.78;1.88;;;18.40;99.90;;;;;;4926882;29;20055;-67
2022/10/18 11:39:52;;;;;;;8.63;1.65;;;18.70;99.90;;;;;;4926863;29;20599;-67
2022/10/18 11:42:46;;;;;;;12.68;2.30;;;18.90;99.90;;;;;;4910859;29;20794;-67
2022/10/18 11:45:47;;;;;;;8.13;1.70;;;18.60;99.90;;;;;;4927956;29;20083;-67
2022/10/18 11:48:22;;;;;;;10.88;1.65;;;18.70;99.90;;;;;;4926991;29;20059;-67
2022/10/18 11:50:57;;;;;;;9.95;1.60;;;18.40;99.90;;;;;;4928115;29;20142;-67
2022/10/18 11:53:42;;;;;;;11.90;1.85;;;18.70;99.90;;;;;;4926784;29;20048;-67
2022/10/18 11:56:21;;;;;;;10.52;1.50;;;19.10;99.90;;;;;;4926648;29;20071;-67
2022/10/18 11:58:56;;;;;;;9.88;1.73;;;19.30;99.90;;;;;;4927658;29;20149;-67
2022/10/18 12:01:42;;;;;;;8.60;1.80;;;19.10;99.90;;;;;;4910354;29;20151;-67
2022/10/18 12:04:14;;;;;;;8.55;1.80;;;18.50;99.90;;;;;;4924511;29;20059;-67
2022/10/18 12:06:44;;;;;;;10.10;1.80;;;18.30;99.90;;;;;;4938037;29;20533;-67
2022/10/18 12:09:18;;;;;;;9.48;1.70;;;18.50;99.90;;;;;;4926877;29;20083;-67
2022/10/18 12:11:55;;;;;;;8.63;1.90;;;18.20;99.90;;;;;;4927419;29;20090;-67
2022/10/18 12:14:33;;;;;;;9.40;1.40;;;18.20;99.90;;;;;;4909563;29;20052;-67
2022/10/18 12:17:04;;;;;;;8.55;1.80;;;18.30;99.90;;;;;;4944732;29;20094;-67
2022/10/18 12:19:33;;;;;;;9.10;1.63;;;18.50;99.90;;;;;;4945823;29;20176;-67
2022/10/18 12:22:21;;;;;;;9.93;1.65;;;18.90;99.90;;;;;;4960962;28;20084;-67
2022/10/18 12:24:47;;;;;;;8.70;1.73;;;19.10;99.90;;;;;;4945641;29;20203;-67
2022/10/18 12:27:15;;;;;;;8.82;1.92;;;18.60;99.90;;;;;;4945528;29;20494;-67
2022/10/18 12:29:55;;;;;;;9.77;1.70;;;18.20;99.90;;;;;;4944844;29;20518;-67
2022/10/18 12:32:26;;;;;;;9.63;1.70;;;17.80;99.90;;;;;;4959669;28;20050;-67
2022/10/18 12:35:00;;;;;;;7.70;1.55;;;17.70;99.90;;;;;;4927223;29;20066;-67
2022/10/18 12:38:01;;;;;;;8.63;1.40;;;18.00;99.90;;;;;;4945512;29;20047;-66
2022/10/18 12:40:36;;;;;;;7.10;1.27;;;17.80;99.90;;;;;;4945528;29;20515;-67
2022/10/18 12:43:15;;;;;;;7.95;1.85;;;18.10;99.90;;;;;;4928049;29;20600;-68
2022/10/18 12:45:54;;;;;;;10.38;2.08;;;18.30;99.90;;;;;;4945284;29;20047;-67
2022/10/18 12:48:38;;;;;;;7.88;1.90;;;18.40;99.90;;;;;;4945115;29;20387;-67
2022/10/18 12:51:14;;;;;;;11.27;2.03;;;18.50;99.90;;;;;;4945461;29;20426;-67